KILE

Details ICAO KILE
Name SKYLARK FLD
Region United States
Timezone America/Chicago (UTC-6.0)
Plans Departing 8
Arriving 6
Stats Elevation 848 ft / 258 m (AMSL)
Location 31.085822° -97.686505°
Runways 1
Magnetic Variation 3.820° E
Sunrise 2017-12-13 13:21:57 UTC / 2017-12-13 07:21:57 Local
Sunset 2017-12-13 23:31:02 UTC / 2017-12-13 17:31:02 Local
Advertisement - Login to hide

Runways

ID Width Length Bearing (true) Bearing (mag) Surface Threshold Offset Overrun Length
01 100 ft / 30 m 5,510 ft / 1,679 m 16.72° 12.90° Asphalt 844 ft / 257 m 0 ft / 0 m
19 100 ft / 30 m 5,510 ft / 1,679 m 196.72° 192.90° Asphalt 0 ft / 0 m 0 ft / 0 m

Approach Navaids

Runway Type Ident Frequency Range Bearing (true) Bearing (mag) Slope Elevation
01 Localiser IILE 108.30 MHz 18 nm / 33 km 16.76° 12.94° - 848 ft / 258 m (AMSL)
01 Glidescope IILE 108.30 MHz 10 nm / 19 km 16.72° 12.90° 3.00° 840 ft / 256 m (AMSL)

Map

Weather


0- 5 10 15 20 25 30 35+ Temperature / ° C

Clouds and Precipitation
Forecast for 2017-12-13 12:00 UTC. Updated an hour ago

Ground ~20,000 ft ~40,000 ft Winds

METAR

KILE 131156Z AUTO 19003KT 10SM CLR 01/M02 A3014 RMK AO2 SLP225 T00061022 10033 21006 56010 FZRANO

TAF

Not found

Frequencies

Recorded 128.57 MHz AWOS 3
Clearance 121.70 MHz CLNC DEL
Unicom 122.70 MHz CTAF/UNICOM
Approach 120.07 MHz GRAY APP/DEP
Warning: Do not use this data for real-world aviation or navigation. No guarantee of current accuracy is given.